Time;durP1;ratioP1;P1;durP2;ratioP2;P2;SDS_P1;SDS_P2;PMS_P1;PMS_P2;Temp;Humidity;BMP_temperature;BMP_pressure;BME280_temperature;BME280_humidity;BME280_pressure;Samples;Min_cycle;Max_cycle;Signal;HPM_P1;HPM_P2
2022/07/13 00:02:26;;;;;;;0.60;0.60;;;;;;;;;;5089348;28;20242;-59
2022/07/13 00:05:13;;;;;;;0.77;0.77;;;;;;;;;;5089622;28;20748;-58
2022/07/13 00:08:01;;;;;;;0.60;0.60;;;;;;;;;;5087408;28;20205;-58
2022/07/13 00:10:49;;;;;;;0.50;0.50;;;;;;;;;;5086669;28;20205;-57
2022/07/13 00:13:36;;;;;;;0.60;0.60;;;;;;;;;;5088382;28;20205;-57
2022/07/13 00:16:23;;;;;;;0.50;0.50;;;;;;;;;;5087298;28;20733;-59
2022/07/13 00:19:10;;;;;;;0.63;0.63;;;;;;;;;;5088707;28;20215;-58
2022/07/13 00:21:57;;;;;;;0.60;0.60;;;;;;;;;;5088886;28;20210;-58
2022/07/13 00:24:45;;;;;;;0.77;0.77;;;;;;;;;;5088923;28;20210;-58
2022/07/13 00:27:32;;;;;;;0.73;0.73;;;;;;;;;;5089396;28;20287;-57
2022/07/13 00:30:19;;;;;;;0.60;0.60;;;;;;;;;;5088041;28;20284;-59
2022/07/13 00:33:07;;;;;;;0.53;0.53;;;;;;;;;;5088060;28;20229;-59
2022/07/13 00:35:54;;;;;;;0.73;0.73;;;;;;;;;;5096384;28;20250;-57
2022/07/13 00:38:40;;;;;;;0.60;0.60;;;;;;;;;;5109152;28;20204;-57
2022/07/13 00:41:29;;;;;;;0.60;0.60;;;;;;;;;;5108568;28;20216;-58
2022/07/13 00:44:17;;;;;;;0.53;0.53;;;;;;;;;;5108275;28;20209;-58
2022/07/13 00:47:05;;;;;;;0.53;0.53;;;;;;;;;;5107643;28;20220;-58
2022/07/13 00:49:52;;;;;;;0.70;0.70;;;;;;;;;;5109226;28;20216;-58
2022/07/13 00:52:41;;;;;;;0.70;0.70;;;;;;;;;;5108892;28;20291;-58
2022/07/13 00:55:29;;;;;;;0.70;0.70;;;;;;;;;;5109047;28;20228;-59
2022/07/13 00:58:17;;;;;;;0.60;0.60;;;;;;;;;;5107664;28;20318;-58
2022/07/13 01:01:04;;;;;;;0.63;0.63;;;;;;;;;;5109522;28;20220;-58
2022/07/13 01:03:51;;;;;;;0.60;0.60;;;;;;;;;;5106504;28;20207;-58
2022/07/13 01:06:38;;;;;;;0.67;0.67;;;;;;;;;;5109212;28;20229;-58
2022/07/13 01:09:26;;;;;;;0.80;0.80;;;;;;;;;;5110463;28;20209;-58
2022/07/13 01:12:13;;;;;;;0.67;0.67;;;;;;;;;;5106588;28;20239;-64
2022/07/13 01:15:02;;;;;;;0.87;0.80;;;;;;;;;;5107700;28;20711;-58
2022/07/13 01:17:49;;;;;;;0.70;0.70;;;;;;;;;;5108126;28;20715;-58
2022/07/13 01:20:37;;;;;;;0.60;0.60;;;;;;;;;;5108929;28;20423;-58
2022/07/13 01:23:26;;;;;;;0.40;0.40;;;;;;;;;;5087585;28;20205;-58
2022/07/13 01:26:13;;;;;;;0.70;0.70;;;;;;;;;;5109292;28;20205;-58
2022/07/13 01:29:00;;;;;;;0.60;0.60;;;;;;;;;;5108878;28;20215;-58
2022/07/13 01:31:47;;;;;;;0.60;0.60;;;;;;;;;;5108228;28;20204;-58
2022/07/13 01:34:34;;;;;;;0.50;0.50;;;;;;;;;;5108737;28;20244;-58
2022/07/13 01:37:21;;;;;;;0.60;0.60;;;;;;;;;;5086835;28;20240;-57
2022/07/13 01:40:10;;;;;;;0.70;0.70;;;;;;;;;;5085857;28;20378;-58
2022/07/13 01:42:57;;;;;;;0.73;0.73;;;;;;;;;;5085555;28;20213;-59
2022/07/13 01:45:45;;;;;;;0.57;0.57;;;;;;;;;;5087281;28;20228;-58
2022/07/13 01:48:32;;;;;;;0.70;0.70;;;;;;;;;;5085859;28;20815;-58
2022/07/13 01:51:19;;;;;;;0.70;0.70;;;;;;;;;;5084708;28;20209;-57
2022/07/13 01:54:06;;;;;;;0.80;0.80;;;;;;;;;;5085908;28;20240;-58
2022/07/13 01:56:54;;;;;;;0.53;0.43;;;;;;;;;;5087196;28;20224;-58
2022/07/13 01:59:41;;;;;;;0.80;0.80;;;;;;;;;;5087699;28;20226;-58
2022/07/13 02:02:28;;;;;;;0.60;0.60;;;;;;;;;;5088939;28;20205;-58
2022/07/13 02:05:16;;;;;;;0.77;0.77;;;;;;;;;;5086312;28;20607;-58
2022/07/13 02:08:03;;;;;;;0.57;0.57;;;;;;;;;;5087510;28;20207;-58
2022/07/13 02:10:50;;;;;;;0.63;0.63;;;;;;;;;;5081281;28;20212;-57
2022/07/13 02:13:38;;;;;;;0.70;0.70;;;;;;;;;;5087023;28;20205;-57
2022/07/13 02:16:25;;;;;;;0.90;0.90;;;;;;;;;;5086098;28;20223;-58
2022/07/13 02:19:12;;;;;;;0.90;0.90;;;;;;;;;;5087920;28;20746;-58
2022/07/13 02:21:59;;;;;;;0.80;0.80;;;;;;;;;;5088051;28;20212;-58
2022/07/13 02:24:46;;;;;;;0.63;0.63;;;;;;;;;;5091652;28;20755;-58
2022/07/13 02:27:33;;;;;;;0.70;0.70;;;;;;;;;;5091145;28;20204;-57
2022/07/13 02:30:21;;;;;;;0.70;0.70;;;;;;;;;;5091983;28;20200;-57
2022/07/13 02:33:08;;;;;;;0.87;0.87;;;;;;;;;;5088921;28;20228;-59
2022/07/13 02:35:55;;;;;;;0.60;0.60;;;;;;;;;;5096362;28;20236;-57
2022/07/13 02:38:42;;;;;;;0.80;0.80;;;;;;;;;;5112236;28;21290;-58
2022/07/13 02:41:29;;;;;;;0.77;0.77;;;;;;;;;;5111696;28;20276;-57
2022/07/13 02:44:16;;;;;;;0.90;0.90;;;;;;;;;;5110699;28;20240;-57
2022/07/13 02:47:04;;;;;;;0.93;0.93;;;;;;;;;;5110959;28;20287;-57
2022/07/13 02:49:52;;;;;;;0.80;0.80;;;;;;;;;;5103597;28;20203;-58
2022/07/13 02:52:39;;;;;;;0.80;0.80;;;;;;;;;;5110769;28;20291;-58
2022/07/13 02:55:26;;;;;;;0.73;0.73;;;;;;;;;;5108123;28;20219;-57
2022/07/13 02:58:13;;;;;;;1.00;0.90;;;;;;;;;;5109383;28;20265;-58
2022/07/13 03:01:00;;;;;;;0.80;0.80;;;;;;;;;;5107099;28;20195;-58
2022/07/13 03:03:49;;;;;;;1.27;1.17;;;;;;;;;;5109981;28;20200;-58
2022/07/13 03:06:36;;;;;;;1.00;1.00;;;;;;;;;;5112366;28;20235;-58
2022/07/13 03:09:23;;;;;;;1.00;1.00;;;;;;;;;;5110698;28;20208;-57
2022/07/13 03:12:10;;;;;;;0.87;0.87;;;;;;;;;;5111122;28;20208;-58
2022/07/13 03:14:57;;;;;;;0.90;0.90;;;;;;;;;;5110503;28;20204;-58
2022/07/13 03:17:44;;;;;;;1.07;1.07;;;;;;;;;;5107839;28;20228;-58
2022/07/13 03:20:32;;;;;;;1.10;1.10;;;;;;;;;;5110360;28;20203;-58
2022/07/13 03:23:19;;;;;;;0.90;0.90;;;;;;;;;;5109171;28;20710;-57
2022/07/13 03:26:06;;;;;;;1.20;1.20;;;;;;;;;;5110144;28;20699;-58
2022/07/13 03:28:53;;;;;;;1.17;1.17;;;;;;;;;;5109566;28;20212;-59
2022/07/13 03:31:40;;;;;;;1.17;1.10;;;;;;;;;;5109887;28;20209;-58
2022/07/13 03:34:27;;;;;;;1.03;1.03;;;;;;;;;;5110954;28;20215;-58
2022/07/13 03:37:15;;;;;;;1.13;1.07;;;;;;;;;;5108780;28;20361;-58
2022/07/13 03:40:02;;;;;;;1.10;1.10;;;;;;;;;;5111468;28;20209;-59
2022/07/13 03:42:49;;;;;;;1.43;1.33;;;;;;;;;;5109662;28;20213;-58
2022/07/13 03:45:36;;;;;;;1.20;1.20;;;;;;;;;;5109201;28;20690;-58
2022/07/13 03:48:23;;;;;;;1.00;1.00;;;;;;;;;;5109582;28;20684;-58
2022/07/13 03:51:10;;;;;;;1.20;1.10;;;;;;;;;;5109823;28;20199;-58
2022/07/13 03:53:58;;;;;;;1.30;1.20;;;;;;;;;;5107011;28;20211;-57
2022/07/13 03:56:46;;;;;;;1.30;1.30;;;;;;;;;;5109960;28;20252;-58
2022/07/13 03:59:34;;;;;;;1.30;1.30;;;;;;;;;;5109412;28;20216;-57
2022/07/13 04:02:21;;;;;;;1.50;1.40;;;;;;;;;;5108231;28;20290;-57
2022/07/13 04:05:08;;;;;;;1.37;1.27;;;;;;;;;;5110343;28;20224;-58
2022/07/13 04:07:55;;;;;;;1.10;1.10;;;;;;;;;;5109929;28;20201;-57
2022/07/13 04:10:43;;;;;;;1.50;1.43;;;;;;;;;;5108723;28;20212;-58
2022/07/13 04:13:30;;;;;;;1.50;1.50;;;;;;;;;;5108728;28;20684;-58
2022/07/13 04:16:17;;;;;;;1.20;1.20;;;;;;;;;;5106939;28;20696;-58
2022/07/13 04:19:04;;;;;;;1.50;1.40;;;;;;;;;;5106710;28;20225;-58
2022/07/13 04:21:51;;;;;;;1.40;1.30;;;;;;;;;;5109088;28;20219;-58
2022/07/13 04:24:38;;;;;;;1.47;1.40;;;;;;;;;;5107587;28;20209;-58
2022/07/13 04:27:27;;;;;;;1.70;1.60;;;;;;;;;;5109382;28;20199;-57
2022/07/13 04:30:13;;;;;;;1.60;1.50;;;;;;;;;;5109657;28;20236;-58
2022/07/13 04:33:00;;;;;;;1.43;1.33;;;;;;;;;;5109482;28;20204;-58
2022/07/13 04:35:47;;;;;;;1.70;1.60;;;;;;;;;;5101656;28;20233;-57
2022/07/13 04:38:35;;;;;;;1.37;1.37;;;;;;;;;;5088006;28;20240;-59
2022/07/13 04:41:22;;;;;;;1.73;1.63;;;;;;;;;;5088237;28;20602;-58
2022/07/13 04:44:10;;;;;;;1.40;1.40;;;;;;;;;;5088344;28;20205;-57
2022/07/13 04:46:57;;;;;;;1.57;1.50;;;;;;;;;;5088612;28;20208;-62
2022/07/13 04:49:44;;;;;;;1.60;1.50;;;;;;;;;;5089471;28;20213;-58
2022/07/13 04:52:31;;;;;;;1.57;1.53;;;;;;;;;;5087649;28;20263;-58
2022/07/13 04:55:18;;;;;;;2.03;1.67;;;;;;;;;;5086217;28;20216;-58
2022/07/13 04:58:05;;;;;;;1.60;1.50;;;;;;;;;;5086290;28;20227;-58
2022/07/13 05:00:54;;;;;;;1.83;1.70;;;;;;;;;;5087035;28;20200;-57
2022/07/13 05:03:41;;;;;;;1.90;1.80;;;;;;;;;;5088561;28;20200;-59
2022/07/13 05:06:28;;;;;;;1.80;1.70;;;;;;;;;;5088269;28;20228;-58
2022/07/13 05:09:15;;;;;;;1.73;1.63;;;;;;;;;;5087686;28;20409;-58
2022/07/13 05:12:02;;;;;;;1.53;1.53;;;;;;;;;;5088153;28;20200;-57
2022/07/13 05:14:49;;;;;;;1.73;1.63;;;;;;;;;;5088337;28;20204;-57
2022/07/13 05:17:37;;;;;;;1.97;1.87;;;;;;;;;;5085782;28;20230;-58
2022/07/13 05:20:24;;;;;;;1.80;1.67;;;;;;;;;;5088395;28;20284;-60
2022/07/13 05:23:11;;;;;;;1.70;1.60;;;;;;;;;;5086940;28;20220;-59
2022/07/13 05:25:58;;;;;;;1.60;1.60;;;;;;;;;;5088451;28;20217;-57
2022/07/13 05:28:45;;;;;;;1.67;1.58;;;;;;;;;;5087884;28;20220;-58
2022/07/13 05:31:32;;;;;;;1.80;1.70;;;;;;;;;;5085690;28;20205;-59
2022/07/13 05:34:20;;;;;;;1.85;1.75;;;;;;;;;;5088810;28;20293;-58
2022/07/13 05:37:07;;;;;;;1.80;1.70;;;;;;;;;;5103833;28;20241;-58
2022/07/13 05:39:54;;;;;;;1.90;1.80;;;;;;;;;;5107870;28;20257;-57
2022/07/13 05:42:41;;;;;;;2.15;1.98;;;;;;;;;;5106964;28;20205;-58
2022/07/13 05:45:28;;;;;;;2.05;1.70;;;;;;;;;;5108214;28;20205;-58
2022/07/13 05:48:15;;;;;;;1.95;1.85;;;;;;;;;;5108838;28;20212;-57
2022/07/13 05:51:04;;;;;;;1.88;1.77;;;;;;;;;;5106908;28;20213;-58
2022/07/13 05:53:51;;;;;;;1.70;1.60;;;;;;;;;;5105906;28;20226;-58
2022/07/13 05:56:39;;;;;;;2.03;1.88;;;;;;;;;;5106265;28;20216;-58
2022/07/13 05:59:26;;;;;;;1.40;1.40;;;;;;;;;;5111872;28;20309;-59
2022/07/13 06:02:13;;;;;;;1.88;1.77;;;;;;;;;;5112557;28;20880;-58
2022/07/13 06:05:00;;;;;;;1.65;1.55;;;;;;;;;;5111496;28;20240;-58
2022/07/13 06:07:48;;;;;;;1.95;1.85;;;;;;;;;;5112464;28;20246;-58
2022/07/13 06:10:36;;;;;;;2.03;1.92;;;;;;;;;;5110897;28;20525;-58
2022/07/13 06:13:23;;;;;;;2.00;1.90;;;;;;;;;;5110367;28;20278;-58
2022/07/13 06:16:10;;;;;;;1.98;1.88;;;;;;;;;;5109931;28;20210;-58
2022/07/13 06:18:56;;;;;;;1.80;1.70;;;;;;;;;;5109059;28;20268;-60
2022/07/13 06:21:44;;;;;;;1.80;1.70;;;;;;;;;;5109232;28;20210;-58
2022/07/13 06:24:32;;;;;;;1.90;1.80;;;;;;;;;;5111256;28;20198;-58
2022/07/13 06:27:19;;;;;;;2.65;1.80;;;;;;;;;;5111867;28;20202;-58
2022/07/13 06:30:07;;;;;;;1.70;1.60;;;;;;;;;;5111495;28;20203;-58
2022/07/13 06:32:54;;;;;;;1.52;1.50;;;;;;;;;;5109346;28;20229;-58
2022/07/13 06:35:41;;;;;;;2.00;1.90;;;;;;;;;;5105491;28;20313;-57
2022/07/13 06:38:28;;;;;;;2.10;2.00;;;;;;;;;;5090847;28;20226;-58
2022/07/13 06:41:17;;;;;;;1.90;1.80;;;;;;;;;;5088726;28;20211;-57
2022/07/13 06:44:04;;;;;;;1.75;1.65;;;;;;;;;;5090374;28;20207;-58
2022/07/13 06:46:52;;;;;;;1.63;1.63;;;;;;;;;;5089987;28;20233;-58
2022/07/13 06:49:39;;;;;;;1.75;1.65;;;;;;;;;;5089892;28;20551;-58
2022/07/13 06:52:26;;;;;;;1.70;1.60;;;;;;;;;;5090136;28;20233;-58
2022/07/13 06:55:13;;;;;;;1.58;1.48;;;;;;;;;;5089258;28;20241;-59
2022/07/13 06:58:02;;;;;;;1.77;1.67;;;;;;;;;;5088468;28;20723;-58
2022/07/13 07:00:49;;;;;;;1.40;1.40;;;;;;;;;;5089503;28;20206;-57
2022/07/13 07:03:36;;;;;;;1.67;1.58;;;;;;;;;;5089056;28;20205;-57
2022/07/13 07:06:23;;;;;;;1.55;1.45;;;;;;;;;;5089617;28;20230;-58
2022/07/13 07:09:10;;;;;;;1.77;1.67;;;;;;;;;;5089200;28;20285;-57
2022/07/13 07:11:57;;;;;;;1.20;1.20;;;;;;;;;;5089311;28;20656;-57
2022/07/13 07:14:45;;;;;;;1.73;1.63;;;;;;;;;;5089309;28;20203;-57
2022/07/13 07:17:32;;;;;;;1.65;1.58;;;;;;;;;;5089334;28;20662;-57
2022/07/13 07:20:19;;;;;;;1.40;1.40;;;;;;;;;;5090155;28;20229;-57
2022/07/13 07:23:06;;;;;;;1.50;1.40;;;;;;;;;;5089915;28;20199;-57
2022/07/13 07:25:53;;;;;;;1.58;1.48;;;;;;;;;;5087911;28;20207;-58
2022/07/13 07:28:40;;;;;;;1.10;1.10;;;;;;;;;;5089054;28;20194;-60
2022/07/13 07:31:28;;;;;;;1.75;1.65;;;;;;;;;;5087031;28;20243;-58
2022/07/13 07:34:15;;;;;;;1.20;1.20;;;;;;;;;;5088600;28;20217;-58
2022/07/13 07:37:03;;;;;;;1.35;1.25;;;;;;;;;;5104739;28;20229;-59
2022/07/13 07:39:50;;;;;;;1.20;1.10;;;;;;;;;;5107551;28;20228;-58
2022/07/13 07:42:37;;;;;;;1.45;1.35;;;;;;;;;;5109796;28;20620;-59
2022/07/13 07:45:24;;;;;;;1.27;1.27;;;;;;;;;;5109732;28;20689;-58
2022/07/13 07:48:13;;;;;;;1.30;1.30;;;;;;;;;;5110098;28;20235;-58
2022/07/13 07:51:00;;;;;;;1.33;1.30;;;;;;;;;;5108707;28;20209;-58
2022/07/13 07:53:47;;;;;;;1.42;1.33;;;;;;;;;;5107698;28;20254;-58
2022/07/13 07:56:34;;;;;;;1.30;1.20;;;;;;;;;;5109787;28;20213;-58
2022/07/13 07:59:21;;;;;;;1.33;1.23;;;;;;;;;;5108717;28;20229;-58
2022/07/13 08:02:09;;;;;;;1.60;1.50;;;;;;;;;;5110242;28;20219;-59
2022/07/13 08:04:59;;;;;;;1.30;1.30;;;;;;;;;;5109173;28;21091;-59
2022/07/13 08:07:49;;;;;;;1.50;1.40;;;;;;;;;;5109905;28;20273;-58
2022/07/13 08:10:36;;;;;;;1.20;1.10;;;;;;;;;;5108994;28;20575;-58
2022/07/13 08:13:23;;;;;;;1.27;1.17;;;;;;;;;;5106580;28;20603;-58
2022/07/13 08:16:10;;;;;;;1.60;1.50;;;;;;;;;;5109883;28;20200;-58
2022/07/13 08:18:57;;;;;;;1.45;1.35;;;;;;;;;;5107051;28;20629;-59
2022/07/13 08:21:46;;;;;;;1.50;1.40;;;;;;;;;;5109206;28;20217;-58
2022/07/13 08:24:33;;;;;;;1.48;1.38;;;;;;;;;;5109905;28;20198;-59
2022/07/13 08:27:20;;;;;;;1.50;1.40;;;;;;;;;;5108695;28;20614;-58
2022/07/13 08:30:07;;;;;;;1.42;1.33;;;;;;;;;;5105152;28;20229;-58
2022/07/13 08:32:54;;;;;;;1.40;1.30;;;;;;;;;;5108601;28;20212;-58
2022/07/13 08:38:47;;;;;;;1.33;1.33;;;;;;;;;;5107979;28;20696;-58
2022/07/13 08:41:35;;;;;;;1.50;1.40;;;;;;;;;;5107242;28;20213;-60
2022/07/13 08:44:22;;;;;;;1.40;1.30;;;;;;;;;;5108754;28;20198;-58
2022/07/13 08:47:10;;;;;;;1.55;1.23;;;;;;;;;;5108530;28;20691;-56
2022/07/13 08:50:02;;;;;;;1.42;1.40;;;;;;;;;;5109556;28;20259;-56
2022/07/13 08:52:49;;;;;;;1.30;1.30;;;;;;;;;;5107952;28;20209;-55
2022/07/13 08:55:39;;;;;;;1.40;1.30;;;;;;;;;;5108183;28;20684;-56
2022/07/13 08:58:26;;;;;;;1.27;1.27;;;;;;;;;;5106549;28;20641;-55
2022/07/13 09:01:14;;;;;;;1.42;1.38;;;;;;;;;;5108742;28;20303;-56
2022/07/13 09:04:01;;;;;;;1.40;1.30;;;;;;;;;;5107952;28;20672;-57
2022/07/13 09:06:49;;;;;;;1.13;1.13;;;;;;;;;;5107778;28;20278;-57
2022/07/13 09:09:38;;;;;;;1.20;1.20;;;;;;;;;;5106146;28;20654;-56
2022/07/13 09:12:27;;;;;;;1.27;1.20;;;;;;;;;;5107824;28;20202;-56
2022/07/13 09:15:14;;;;;;;1.63;1.42;;;;;;;;;;5106921;28;20224;-56
2022/07/13 09:18:01;;;;;;;1.55;1.45;;;;;;;;;;5105992;28;20285;-56
2022/07/13 09:20:49;;;;;;;1.20;1.20;;;;;;;;;;5108561;28;20205;-57
2022/07/13 09:23:36;;;;;;;1.10;1.10;;;;;;;;;;5108447;28;20202;-57
2022/07/13 09:26:23;;;;;;;1.38;1.35;;;;;;;;;;5104446;28;20198;-57
2022/07/13 09:29:18;;;;;;;1.45;1.35;;;;;;;;;;5107731;28;20681;-56
2022/07/13 09:32:08;;;;;;;1.08;1.08;;;;;;;;;;5107424;28;20209;-58
2022/07/13 09:34:58;;;;;;;2.15;1.60;;;;;;;;;;5107685;28;20198;-58
2022/07/13 09:37:45;;;;;;;1.73;1.63;;;;;;;;;;5107687;28;20204;-57
2022/07/13 09:40:32;;;;;;;1.20;1.20;;;;;;;;;;5107704;28;20711;-59
2022/07/13 09:46:25;;;;;;;1.38;1.27;;;;;;;;;;5106490;28;20205;-58
2022/07/13 09:49:14;;;;;;;2.28;1.50;;;;;;;;;;5107973;28;20206;-58
2022/07/13 09:52:03;;;;;;;1.45;1.35;;;;;;;;;;5107826;28;20243;-58
2022/07/13 09:54:51;;;;;;;1.80;1.70;;;;;;;;;;5106478;28;20730;-58
2022/07/13 09:57:44;;;;;;;1.50;1.40;;;;;;;;;;5104332;28;20266;-58
2022/07/13 10:00:32;;;;;;;1.40;1.30;;;;;;;;;;5107205;28;20214;-58
2022/07/13 10:03:21;;;;;;;1.30;1.30;;;;;;;;;;5108200;28;20214;-58
2022/07/13 10:06:08;;;;;;;1.40;1.38;;;;;;;;;;5108458;28;20597;-58
2022/07/13 10:08:56;;;;;;;1.27;1.27;;;;;;;;;;5109126;28;20230;-58
2022/07/13 10:11:43;;;;;;;1.30;1.20;;;;;;;;;;5108303;28;20210;-58
2022/07/13 10:14:30;;;;;;;1.20;1.13;;;;;;;;;;5105161;28;20725;-59
2022/07/13 10:17:17;;;;;;;1.20;1.17;;;;;;;;;;5106314;28;20206;-58
2022/07/13 10:20:10;;;;;;;1.60;1.13;;;;;;;;;;5105931;28;20222;-57
2022/07/13 10:22:57;;;;;;;1.45;1.35;;;;;;;;;;5104242;28;20205;-58
2022/07/13 10:25:45;;;;;;;1.70;1.40;;;;;;;;;;5103534;28;20217;-58
2022/07/13 10:28:33;;;;;;;1.85;1.65;;;;;;;;;;5107085;28;20208;-58
2022/07/13 10:31:31;;;;;;;1.42;1.33;;;;;;;;;;5105224;28;20270;-58
2022/07/13 10:34:18;;;;;;;1.15;1.15;;;;;;;;;;5106474;28;20229;-57
2022/07/13 10:37:06;;;;;;;1.33;1.33;;;;;;;;;;5106585;28;20605;-58
2022/07/13 10:40:13;;;;;;;2.33;1.30;;;;;;;;;;5103111;28;20352;-58
2022/07/13 10:43:16;;;;;;;1.42;1.42;;;;;;;;;;5106694;28;20214;-58
2022/07/13 10:46:03;;;;;;;1.30;1.30;;;;;;;;;;5109442;28;20744;-58
2022/07/13 10:48:50;;;;;;;1.60;1.50;;;;;;;;;;5111830;28;20210;-57
2022/07/13 10:51:37;;;;;;;1.42;1.30;;;;;;;;;;5109920;28;20205;-58
2022/07/13 10:54:26;;;;;;;1.33;1.33;;;;;;;;;;5111350;28;20213;-58
2022/07/13 10:57:15;;;;;;;1.60;1.50;;;;;;;;;;5108765;28;20217;-57
2022/07/13 11:00:04;;;;;;;1.30;1.30;;;;;;;;;;5108569;28;20229;-61
2022/07/13 11:02:54;;;;;;;1.13;1.13;;;;;;;;;;5107507;28;20207;-58
2022/07/13 11:06:04;;;;;;;1.65;1.55;;;;;;;;;;5110000;28;20213;-59
2022/07/13 11:09:23;;;;;;;1.98;1.55;;;;;;;;;;5109456;28;20206;-58
2022/07/13 11:12:22;;;;;;;1.30;1.30;;;;;;;;;;5109303;28;20677;-59
2022/07/13 11:15:19;;;;;;;1.60;1.50;;;;;;;;;;5111947;28;20247;-58
2022/07/13 11:18:31;;;;;;;1.33;1.33;;;;;;;;;;5110016;28;20284;-58
2022/07/13 11:21:22;;;;;;;1.55;1.45;;;;;;;;;;5100182;28;20233;-58
2022/07/13 11:27:30;;;;;;;1.05;1.05;;;;;;;;;;5108936;28;20201;-58
2022/07/13 11:30:27;;;;;;;1.50;1.40;;;;;;;;;;5110819;28;20669;-58
2022/07/13 11:33:16;;;;;;;1.60;1.50;;;;;;;;;;5109361;28;20209;-58
2022/07/13 11:36:04;;;;;;;1.55;1.55;;;;;;;;;;5108038;28;20367;-58
2022/07/13 11:38:51;;;;;;;1.70;1.60;;;;;;;;;;5110106;28;20239;-58
2022/07/13 11:41:45;;;;;;;1.38;1.38;;;;;;;;;;5109320;28;20834;-58
2022/07/13 11:44:34;;;;;;;1.60;1.50;;;;;;;;;;5109504;28;20749;-58
2022/07/13 11:47:21;;;;;;;1.60;1.50;;;;;;;;;;5110425;28;20282;-58
2022/07/13 11:50:09;;;;;;;1.45;1.35;;;;;;;;;;5109657;28;20201;-59
2022/07/13 11:52:56;;;;;;;1.40;1.30;;;;;;;;;;5110188;28;20617;-58
2022/07/13 11:55:43;;;;;;;1.50;1.40;;;;;;;;;;5107509;28;20205;-57
2022/07/13 11:58:32;;;;;;;1.70;1.60;;;;;;;;;;5109167;28;20198;-57
2022/07/13 12:01:20;;;;;;;1.80;1.70;;;;;;;;;;5110446;28;20312;-58
2022/07/13 12:04:07;;;;;;;1.38;1.27;;;;;;;;;;5108746;28;20210;-57
2022/07/13 12:07:09;;;;;;;1.45;1.35;;;;;;;;;;5108257;28;20685;-58
2022/07/13 12:09:58;;;;;;;1.40;1.40;;;;;;;;;;5106563;28;20821;-57
2022/07/13 12:12:45;;;;;;;1.85;1.70;;;;;;;;;;5107975;28;20210;-58
2022/07/13 12:15:32;;;;;;;1.48;1.38;;;;;;;;;;5107120;28;20590;-58
2022/07/13 12:18:21;;;;;;;1.73;1.63;;;;;;;;;;5109984;28;20233;-57
2022/07/13 12:21:08;;;;;;;1.48;1.30;;;;;;;;;;5108090;28;20232;-57
2022/07/13 12:23:55;;;;;;;1.75;1.65;;;;;;;;;;5108908;28;20224;-57
2022/07/13 12:26:51;;;;;;;1.75;1.65;;;;;;;;;;5107729;28;20680;-58
2022/07/13 12:29:38;;;;;;;1.73;1.63;;;;;;;;;;5106951;28;21397;-58
2022/07/13 12:32:25;;;;;;;2.05;1.95;;;;;;;;;;5106479;28;20205;-58
2022/07/13 12:35:16;;;;;;;1.77;1.67;;;;;;;;;;5106732;28;20202;-57
2022/07/13 12:38:05;;;;;;;1.20;1.20;;;;;;;;;;5105704;28;20689;-57
2022/07/13 12:40:54;;;;;;;1.63;1.52;;;;;;;;;;5108808;28;20248;-58
2022/07/13 12:43:41;;;;;;;2.70;1.83;;;;;;;;;;5108963;28;20198;-58
2022/07/13 12:46:47;;;;;;;1.65;1.55;;;;;;;;;;5106356;28;20618;-58
2022/07/13 12:49:36;;;;;;;1.70;1.60;;;;;;;;;;5107986;28;20223;-58
2022/07/13 12:52:24;;;;;;;1.60;1.50;;;;;;;;;;5107172;28;20236;-62
2022/07/13 12:55:11;;;;;;;1.58;1.45;;;;;;;;;;5105845;28;20662;-59
2022/07/13 12:57:58;;;;;;;1.80;1.70;;;;;;;;;;5107150;28;20251;-59
2022/07/13 13:00:45;;;;;;;1.30;1.30;;;;;;;;;;5104972;28;20224;-59
2022/07/13 13:03:32;;;;;;;1.92;1.60;;;;;;;;;;5104737;28;20232;-57
2022/07/13 13:06:19;;;;;;;1.45;1.35;;;;;;;;;;5107345;28;20229;-58
2022/07/13 13:09:09;;;;;;;1.65;1.55;;;;;;;;;;5104713;28;20576;-58
2022/07/13 13:11:56;;;;;;;1.80;1.70;;;;;;;;;;5105228;28;20220;-58
2022/07/13 13:14:43;;;;;;;1.63;1.52;;;;;;;;;;5103416;28;20225;-58
2022/07/13 13:17:30;;;;;;;1.52;1.50;;;;;;;;;;5106147;28;20217;-59
2022/07/13 13:20:17;;;;;;;1.42;1.33;;;;;;;;;;5104267;28;20271;-57
2022/07/13 13:23:04;;;;;;;1.60;1.50;;;;;;;;;;5106447;28;20197;-58
2022/07/13 13:25:52;;;;;;;1.58;1.48;;;;;;;;;;5104862;28;20245;-58
2022/07/13 13:31:40;;;;;;;1.80;1.70;;;;;;;;;;5107223;28;20246;-57
2022/07/13 13:34:27;;;;;;;1.75;1.65;;;;;;;;;;5107828;28;20205;-58
2022/07/13 13:37:15;;;;;;;1.33;1.33;;;;;;;;;;5089233;28;20360;-58
2022/07/13 13:40:01;;;;;;;1.73;1.55;;;;;;;;;;5084211;28;20218;-57
2022/07/13 13:42:50;;;;;;;1.30;1.30;;;;;;;;;;5085562;28;20219;-58
2022/07/13 13:45:37;;;;;;;1.35;1.30;;;;;;;;;;5084408;28;20585;-59
2022/07/13 13:48:24;;;;;;;1.60;1.50;;;;;;;;;;5087295;28;20206;-57
2022/07/13 13:51:11;;;;;;;1.90;1.40;;;;;;;;;;5087102;28;20202;-58
2022/07/13 13:53:58;;;;;;;1.63;1.50;;;;;;;;;;5087188;28;20597;-58
2022/07/13 13:56:45;;;;;;;1.40;1.30;;;;;;;;;;5085967;28;20582;-58
2022/07/13 13:59:33;;;;;;;1.45;1.40;;;;;;;;;;5087922;28;20206;-58
2022/07/13 14:02:20;;;;;;;1.80;1.70;;;;;;;;;;5086493;28;20210;-59
2022/07/13 14:05:08;;;;;;;1.50;1.40;;;;;;;;;;5085717;28;20305;-58
2022/07/13 14:07:55;;;;;;;2.08;1.50;;;;;;;;;;5088217;28;20203;-58
2022/07/13 14:10:43;;;;;;;1.60;1.23;;;;;;;;;;5087584;28;20206;-58
2022/07/13 14:13:30;;;;;;;1.55;1.45;;;;;;;;;;5086751;28;20203;-58
2022/07/13 14:16:19;;;;;;;1.50;1.40;;;;;;;;;;5087326;28;20217;-58
2022/07/13 14:19:06;;;;;;;1.67;1.48;;;;;;;;;;5089551;28;20727;-59
2022/07/13 14:21:53;;;;;;;2.22;1.10;;;;;;;;;;5089740;28;20222;-58
2022/07/13 14:24:40;;;;;;;2.45;1.58;;;;;;;;;;5091782;28;20201;-59
2022/07/13 14:27:27;;;;;;;1.80;1.45;;;;;;;;;;5085735;28;20612;-59
2022/07/13 14:30:14;;;;;;;2.55;1.48;;;;;;;;;;5090836;28;20194;-58
2022/07/13 14:33:02;;;;;;;1.65;1.55;;;;;;;;;;5090009;28;20198;-58
2022/07/13 14:35:49;;;;;;;1.85;1.30;;;;;;;;;;5096988;28;20261;-58
2022/07/13 14:38:36;;;;;;;2.70;1.40;;;;;;;;;;5110753;28;20246;-59
2022/07/13 14:41:23;;;;;;;1.80;1.65;;;;;;;;;;5110550;28;20262;-57
2022/07/13 14:44:12;;;;;;;1.10;1.05;;;;;;;;;;5109692;28;20290;-58
2022/07/13 14:46:59;;;;;;;1.77;1.65;;;;;;;;;;5109089;28;20670;-57
2022/07/13 14:49:47;;;;;;;2.10;1.80;;;;;;;;;;5109551;28;20285;-58
2022/07/13 14:52:34;;;;;;;2.40;1.52;;;;;;;;;;5110930;28;20255;-62
2022/07/13 14:55:21;;;;;;;2.65;1.48;;;;;;;;;;5111880;28;20291;-58
2022/07/13 14:58:08;;;;;;;1.65;1.45;;;;;;;;;;5110633;28;20225;-57
2022/07/13 15:00:55;;;;;;;1.52;1.42;;;;;;;;;;5088241;28;20705;-58
2022/07/13 15:03:45;;;;;;;1.67;1.48;;;;;;;;;;5110923;28;20208;-57
2022/07/13 15:06:33;;;;;;;1.35;1.27;;;;;;;;;;5089175;28;20222;-57
2022/07/13 15:09:20;;;;;;;1.40;1.30;;;;;;;;;;5087784;28;20233;-58
2022/07/13 15:12:07;;;;;;;2.00;1.48;;;;;;;;;;5110899;28;20738;-58
2022/07/13 15:14:54;;;;;;;2.00;1.45;;;;;;;;;;5077764;28;20572;-59
2022/07/13 15:17:41;;;;;;;2.00;1.60;;;;;;;;;;5088392;28;20201;-58
2022/07/13 15:20:28;;;;;;;1.27;1.17;;;;;;;;;;5110805;28;20233;-59
2022/07/13 15:23:17;;;;;;;1.98;1.23;;;;;;;;;;5109277;28;20217;-59
2022/07/13 15:26:04;;;;;;;2.65;1.70;;;;;;;;;;5108191;28;20229;-58
2022/07/13 15:28:52;;;;;;;1.42;1.33;;;;;;;;;;5109586;28;20262;-57
2022/07/13 15:31:39;;;;;;;1.45;1.15;;;;;;;;;;5109771;28;20224;-59
2022/07/13 15:34:26;;;;;;;1.27;1.17;;;;;;;;;;5110673;28;20244;-58
2022/07/13 15:37:13;;;;;;;3.00;1.13;;;;;;;;;;5089315;28;21071;-57
2022/07/13 15:40:01;;;;;;;1.23;1.20;;;;;;;;;;5091051;28;20276;-58
2022/07/13 15:42:48;;;;;;;1.63;1.33;;;;;;;;;;5088674;28;20593;-58
2022/07/13 15:45:35;;;;;;;1.75;1.40;;;;;;;;;;5088410;28;20210;-58
2022/07/13 15:48:22;;;;;;;1.98;1.38;;;;;;;;;;5090183;28;20210;-57
2022/07/13 15:51:11;;;;;;;1.42;1.33;;;;;;;;;;5088995;28;20199;-58
2022/07/13 15:53:59;;;;;;;2.00;1.30;;;;;;;;;;5090759;28;20198;-58
2022/07/13 15:56:48;;;;;;;1.05;1.05;;;;;;;;;;5089201;28;20203;-58
2022/07/13 15:59:35;;;;;;;1.85;1.50;;;;;;;;;;5109575;28;20662;-58
2022/07/13 16:02:22;;;;;;;1.85;1.17;;;;;;;;;;5087197;28;20218;-58
2022/07/13 16:05:09;;;;;;;1.55;1.45;;;;;;;;;;5088654;28;20552;-58
2022/07/13 16:07:56;;;;;;;1.67;1.33;;;;;;;;;;5108145;28;20208;-58
2022/07/13 16:10:43;;;;;;;2.17;1.58;;;;;;;;;;5109084;28;20205;-58
2022/07/13 16:13:31;;;;;;;1.73;1.20;;;;;;;;;;5109920;28;20212;-58
2022/07/13 16:16:18;;;;;;;1.77;1.30;;;;;;;;;;5106920;28;20213;-58
2022/07/13 16:19:05;;;;;;;1.60;1.45;;;;;;;;;;5109378;28;20249;-58
2022/07/13 16:21:56;;;;;;;1.40;1.30;;;;;;;;;;5087312;28;20239;-58
2022/07/13 16:24:45;;;;;;;1.23;1.13;;;;;;;;;;5090443;28;20287;-59
2022/07/13 16:27:32;;;;;;;2.10;1.27;;;;;;;;;;5109214;28;20206;-59
2022/07/13 16:30:20;;;;;;;1.55;1.40;;;;;;;;;;5108453;28;20692;-58
2022/07/13 16:33:07;;;;;;;1.45;1.35;;;;;;;;;;5088137;28;20209;-58
2022/07/13 16:35:54;;;;;;;1.40;1.20;;;;;;;;;;5086242;28;20305;-58
2022/07/13 16:38:41;;;;;;;1.58;1.00;;;;;;;;;;5087861;28;20205;-58
2022/07/13 16:41:28;;;;;;;0.90;0.90;;;;;;;;;;5088301;28;20735;-58
2022/07/13 16:44:15;;;;;;;1.30;1.20;;;;;;;;;;5108697;28;20690;-58
2022/07/13 16:47:04;;;;;;;1.25;1.10;;;;;;;;;;5086808;28;20624;-58
2022/07/13 16:49:52;;;;;;;1.13;1.08;;;;;;;;;;5108758;28;20709;-58
2022/07/13 16:52:39;;;;;;;1.73;1.30;;;;;;;;;;5107999;28;20229;-58
2022/07/13 16:55:26;;;;;;;1.73;1.42;;;;;;;;;;5107289;28;20245;-58
2022/07/13 16:58:13;;;;;;;1.55;1.20;;;;;;;;;;5107542;28;20219;-59
2022/07/13 17:01:00;;;;;;;2.05;1.58;;;;;;;;;;5107557;28;20595;-58